Time;durP1;ratioP1;P1;durP2;ratioP2;P2;SDS_P1;SDS_P2;PMS_P1;PMS_P2;Temp;Humidity;BMP_temperature;BMP_pressure;BME280_temperature;BME280_humidity;BME280_pressure;Samples;Min_cycle;Max_cycle;Signal;HPM_P1;HPM_P2
2021/01/22 00:00:19;;;;;;;1.10;0.90;;;9.80;99.90;;;;;;5091223;28;20228;-78
2021/01/22 00:02:45;;;;;;;2.35;1.17;;;9.80;99.90;;;;;;5100916;28;20208;-78
2021/01/22 00:05:12;;;;;;;1.25;0.77;;;9.80;99.90;;;;;;5110480;28;20520;-78
2021/01/22 00:07:39;;;;;;;1.88;0.90;;;9.80;99.90;;;;;;5110044;28;20204;-78
2021/01/22 00:10:06;;;;;;;4.50;0.90;;;9.80;99.90;;;;;;5111440;28;20217;-78
2021/01/22 00:12:33;;;;;;;2.40;0.80;;;9.80;99.90;;;;;;5105764;28;20634;-78
2021/01/22 00:14:59;;;;;;;1.05;0.80;;;9.80;99.90;;;;;;5109875;28;20582;-77
2021/01/22 00:17:25;;;;;;;1.60;0.95;;;9.80;99.90;;;;;;5111565;28;20272;-77
2021/01/22 00:19:52;;;;;;;1.20;1.00;;;9.80;99.90;;;;;;5111159;28;20273;-77
2021/01/22 00:22:18;;;;;;;1.70;0.82;;;9.80;99.90;;;;;;5104978;28;20202;-77
2021/01/22 00:24:45;;;;;;;1.00;0.70;;;9.80;99.90;;;;;;5110677;28;20220;-77
2021/01/22 00:27:11;;;;;;;1.60;1.38;;;9.80;99.90;;;;;;5107280;28;20221;-77
2021/01/22 00:29:38;;;;;;;1.13;0.85;;;9.90;99.90;;;;;;5090556;28;20221;-75
2021/01/22 00:32:04;;;;;;;1.98;1.00;;;9.90;99.90;;;;;;5092439;28;20203;-75
2021/01/22 00:34:31;;;;;;;2.15;0.85;;;9.90;99.90;;;;;;5104973;28;20644;-75
2021/01/22 00:36:57;;;;;;;0.80;0.65;;;9.90;99.90;;;;;;5111079;28;20197;-76
2021/01/22 00:39:23;;;;;;;3.55;1.27;;;9.90;99.90;;;;;;5110449;28;20210;-76
2021/01/22 00:41:50;;;;;;;1.08;0.80;;;9.90;99.90;;;;;;5091286;28;20246;-75
2021/01/22 00:44:17;;;;;;;0.95;0.70;;;9.90;99.90;;;;;;5098096;28;20204;-75
2021/01/22 00:46:43;;;;;;;2.58;0.88;;;9.90;99.90;;;;;;5090166;28;20225;-75
2021/01/22 00:49:09;;;;;;;1.10;0.80;;;9.90;99.90;;;;;;5099726;28;20235;-79
2021/01/22 00:51:35;;;;;;;2.75;0.90;;;9.90;99.90;;;;;;5090640;28;20202;-78
2021/01/22 00:54:02;;;;;;;1.85;1.00;;;9.90;99.90;;;;;;5102226;28;20203;-79
2021/01/22 00:56:29;;;;;;;1.55;0.90;;;9.90;99.90;;;;;;5110841;28;20219;-78
2021/01/22 00:58:56;;;;;;;1.33;0.95;;;9.90;99.90;;;;;;5110690;28;20238;-79
2021/01/22 01:01:22;;;;;;;1.00;0.70;;;9.90;99.90;;;;;;5102326;28;20197;-78
2021/01/22 01:03:48;;;;;;;2.42;0.80;;;9.90;99.90;;;;;;5103131;28;20999;-78
2021/01/22 01:06:14;;;;;;;1.00;0.88;;;9.90;99.90;;;;;;5090486;28;20201;-78
2021/01/22 01:08:41;;;;;;;0.95;0.80;;;9.90;99.90;;;;;;5093263;28;20197;-78
2021/01/22 01:11:07;;;;;;;1.27;1.02;;;9.90;99.90;;;;;;5106431;28;20216;-78
2021/01/22 01:13:33;;;;;;;0.90;0.70;;;9.90;99.90;;;;;;5107941;28;20193;-76
2021/01/22 01:16:00;;;;;;;1.60;0.88;;;10.00;99.90;;;;;;5089878;28;20258;-76
2021/01/22 01:18:27;;;;;;;2.28;1.00;;;10.00;99.90;;;;;;5090627;28;20201;-76
2021/01/22 01:20:53;;;;;;;1.90;0.80;;;10.00;99.90;;;;;;5100031;28;20664;-76
2021/01/22 01:23:20;;;;;;;4.28;0.90;;;10.00;99.90;;;;;;5097812;28;20201;-75
2021/01/22 01:25:46;;;;;;;1.48;1.00;;;10.00;99.90;;;;;;5114592;28;20196;-75
2021/01/22 01:28:13;;;;;;;3.75;1.10;;;10.00;99.90;;;;;;5103950;28;20518;-76
2021/01/22 01:30:39;;;;;;;2.70;1.30;;;9.90;99.90;;;;;;5097761;28;20231;-76
2021/01/22 01:33:06;;;;;;;1.48;0.90;;;10.00;99.90;;;;;;5097058;28;20186;-75
2021/01/22 01:35:32;;;;;;;6.70;0.98;;;10.00;99.90;;;;;;5093777;28;20208;-76
2021/01/22 01:37:59;;;;;;;1.50;0.90;;;10.00;99.90;;;;;;5094380;28;20201;-76
2021/01/22 01:40:25;;;;;;;4.07;2.65;;;10.00;99.90;;;;;;5095840;28;20544;-75
2021/01/22 01:42:51;;;;;;;2.95;1.30;;;10.00;99.90;;;;;;5096346;28;20204;-75
2021/01/22 01:45:18;;;;;;;3.20;1.15;;;10.00;99.90;;;;;;5093435;28;20229;-76
2021/01/22 01:47:44;;;;;;;2.70;1.30;;;10.00;99.90;;;;;;5093827;28;20229;-75
2021/01/22 01:50:13;;;;;;;3.35;1.13;;;10.00;99.90;;;;;;5102523;28;20220;-76
2021/01/22 01:52:40;;;;;;;4.95;1.33;;;10.00;99.90;;;;;;5114078;28;20189;-77
2021/01/22 01:55:08;;;;;;;1.45;0.98;;;10.00;99.90;;;;;;5104212;28;20205;-77
2021/01/22 01:57:34;;;;;;;1.15;1.05;;;10.10;99.90;;;;;;5109580;28;20232;-77
2021/01/22 02:00:01;;;;;;;1.30;0.95;;;10.10;99.90;;;;;;5104935;28;20629;-77
2021/01/22 02:02:28;;;;;;;2.90;1.25;;;10.00;99.90;;;;;;5112275;28;20201;-77
2021/01/22 02:04:55;;;;;;;3.10;1.25;;;10.10;99.90;;;;;;5114211;28;20201;-77
2021/01/22 02:07:23;;;;;;;3.25;1.20;;;10.00;99.90;;;;;;5099999;28;20224;-77
2021/01/22 02:09:49;;;;;;;5.47;1.90;;;10.00;99.90;;;;;;5093378;28;20247;-77
2021/01/22 02:12:17;;;;;;;3.95;1.73;;;10.00;99.90;;;;;;5108737;28;20195;-77
2021/01/22 02:14:44;;;;;;;2.75;1.10;;;10.00;99.90;;;;;;5103348;28;20313;-76
2021/01/22 02:17:11;;;;;;;2.42;1.80;;;10.00;99.90;;;;;;5093249;28;20202;-80
2021/01/22 02:19:56;;;;;;;2.42;1.17;;;10.00;99.90;;;;;;5094556;28;20197;-80
2021/01/22 02:22:24;;;;;;;4.03;1.10;;;10.00;99.90;;;;;;5104147;28;20189;-80
2021/01/22 02:24:53;;;;;;;2.25;1.52;;;10.10;99.90;;;;;;5092833;28;20229;-78
2021/01/22 02:27:20;;;;;;;5.60;1.30;;;10.10;99.90;;;;;;5098018;28;20200;-75
2021/01/22 02:29:48;;;;;;;6.05;1.30;;;10.00;99.90;;;;;;5103754;28;20217;-78
2021/01/22 02:32:16;;;;;;;3.20;1.10;;;10.10;99.90;;;;;;5092482;28;20212;-78
2021/01/22 02:34:44;;;;;;;2.80;1.10;;;10.10;99.90;;;;;;5093089;28;20190;-78
2021/01/22 02:37:13;;;;;;;7.05;1.48;;;10.10;99.90;;;;;;5094672;28;20193;-78
2021/01/22 02:39:43;;;;;;;4.18;1.40;;;10.10;99.90;;;;;;5097722;28;20198;-78
2021/01/22 02:42:10;;;;;;;1.50;0.98;;;10.10;99.90;;;;;;5092777;28;20201;-79
2021/01/22 02:44:38;;;;;;;4.20;1.00;;;10.10;99.90;;;;;;5092473;28;20647;-78
2021/01/22 02:47:08;;;;;;;1.25;1.00;;;10.00;99.90;;;;;;5093785;28;20843;-79
2021/01/22 02:49:35;;;;;;;1.52;1.13;;;10.00;99.90;;;;;;5092957;28;20212;-79
2021/01/22 02:52:01;;;;;;;1.00;0.80;;;10.00;99.90;;;;;;5109305;28;20208;-79
2021/01/22 02:54:27;;;;;;;3.10;1.10;;;9.90;99.90;;;;;;5112604;28;20189;-79
2021/01/22 02:57:05;;;;;;;1.05;0.75;;;9.90;99.90;;;;;;5092958;28;20231;-79
2021/01/22 02:59:48;;;;;;;1.40;0.93;;;9.90;99.90;;;;;;5111695;28;20187;-79
2021/01/22 03:02:19;;;;;;;1.15;0.80;;;9.90;99.90;;;;;;5094450;28;20230;-79
2021/01/22 03:04:47;;;;;;;0.90;0.70;;;9.90;99.90;;;;;;5092766;28;20182;-77
2021/01/22 03:07:22;;;;;;;1.73;0.70;;;9.90;99.90;;;;;;5093648;28;20198;-77
2021/01/22 03:09:51;;;;;;;1.58;1.00;;;9.80;99.90;;;;;;5111464;28;20510;-78
2021/01/22 03:12:18;;;;;;;1.48;1.30;;;9.80;99.90;;;;;;5111148;28;20196;-77
2021/01/22 03:14:45;;;;;;;1.00;0.80;;;9.80;99.90;;;;;;5110211;28;20201;-77
2021/01/22 03:17:12;;;;;;;1.10;0.73;;;9.80;99.90;;;;;;5093538;28;20258;-78
2021/01/22 03:19:42;;;;;;;1.00;0.80;;;9.80;99.90;;;;;;5092535;28;20190;-78
2021/01/22 03:22:08;;;;;;;1.30;0.75;;;9.80;99.90;;;;;;5092165;28;20207;-77
2021/01/22 03:24:35;;;;;;;1.95;0.80;;;9.70;99.90;;;;;;5112330;28;20204;-77
2021/01/22 03:27:01;;;;;;;1.10;0.70;;;9.80;99.90;;;;;;5110942;28;20199;-78
2021/01/22 03:29:27;;;;;;;1.27;0.80;;;9.70;99.90;;;;;;5091100;28;20213;-77
2021/01/22 03:31:54;;;;;;;2.85;0.98;;;9.80;99.90;;;;;;5091630;28;20204;-76
2021/01/22 03:34:25;;;;;;;1.20;0.80;;;9.70;99.90;;;;;;5109554;28;20188;-78
2021/01/22 03:36:53;;;;;;;0.90;0.70;;;9.70;99.90;;;;;;5103764;28;20232;-79
2021/01/22 03:39:19;;;;;;;1.25;0.90;;;9.70;99.90;;;;;;5112162;28;20203;-79
2021/01/22 03:41:45;;;;;;;1.23;0.82;;;9.70;99.90;;;;;;5108473;28;20198;-79
2021/01/22 03:44:12;;;;;;;1.00;0.80;;;9.70;99.90;;;;;;5108000;28;20684;-80
2021/01/22 03:46:38;;;;;;;0.90;0.70;;;9.70;99.90;;;;;;5106102;28;20228;-80
2021/01/22 03:49:04;;;;;;;0.80;0.63;;;9.70;99.90;;;;;;5111616;28;20228;-79
2021/01/22 03:51:31;;;;;;;0.95;0.70;;;9.70;99.90;;;;;;5100250;28;20250;-78
2021/01/22 03:53:58;;;;;;;0.80;0.60;;;9.60;99.90;;;;;;5105686;28;20761;-77
2021/01/22 03:56:24;;;;;;;0.98;0.65;;;9.60;99.90;;;;;;5106651;28;20270;-78
2021/01/22 03:58:50;;;;;;;1.05;0.70;;;9.60;99.90;;;;;;5111516;28;20200;-78
2021/01/22 04:01:18;;;;;;;0.80;0.60;;;9.60;99.90;;;;;;5111289;28;20641;-79
2021/01/22 04:03:44;;;;;;;2.13;0.85;;;9.60;99.90;;;;;;5111305;28;20533;-78
2021/01/22 04:06:10;;;;;;;0.90;0.80;;;9.60;99.90;;;;;;5099046;28;20257;-79
2021/01/22 04:08:38;;;;;;;1.00;0.82;;;9.50;99.90;;;;;;5111416;28;20632;-77
2021/01/22 04:11:04;;;;;;;1.00;0.85;;;9.50;99.90;;;;;;5111157;28;20225;-79
2021/01/22 04:13:30;;;;;;;1.00;0.80;;;9.50;99.90;;;;;;5110729;28;20207;-80
2021/01/22 04:15:57;;;;;;;1.65;0.75;;;9.50;99.90;;;;;;5110132;28;20204;-80
2021/01/22 04:18:24;;;;;;;1.00;0.80;;;9.50;99.90;;;;;;5101717;28;20358;-80
2021/01/22 04:20:50;;;;;;;0.90;0.80;;;9.50;99.90;;;;;;5092175;28;20205;-80
2021/01/22 04:23:16;;;;;;;0.90;0.70;;;9.40;99.90;;;;;;5110521;28;20226;-80
2021/01/22 04:25:43;;;;;;;1.27;0.90;;;9.40;99.90;;;;;;5107295;28;20273;-79
2021/01/22 04:28:10;;;;;;;0.80;0.68;;;9.40;99.90;;;;;;5110866;28;20188;-79
2021/01/22 04:30:36;;;;;;;1.00;0.73;;;9.40;99.90;;;;;;5110935;28;20224;-78
2021/01/22 04:33:02;;;;;;;0.90;0.70;;;9.40;99.90;;;;;;5110851;28;20197;-78
2021/01/22 04:35:29;;;;;;;1.00;0.65;;;9.40;99.90;;;;;;5108813;28;20689;-78
2021/01/22 04:37:55;;;;;;;1.20;1.00;;;9.40;99.90;;;;;;5111068;28;20197;-78
2021/01/22 04:40:23;;;;;;;1.10;0.80;;;9.40;99.90;;;;;;5096253;28;20629;-79
2021/01/22 04:42:51;;;;;;;1.00;0.80;;;9.30;99.90;;;;;;5108299;28;20200;-78
2021/01/22 04:45:18;;;;;;;1.00;0.80;;;9.30;99.90;;;;;;5109745;28;20225;-76
2021/01/22 04:47:44;;;;;;;0.88;0.70;;;9.30;99.90;;;;;;5104592;28;20259;-77
2021/01/22 04:50:12;;;;;;;1.00;0.80;;;9.30;99.90;;;;;;5110979;28;20212;-77
2021/01/22 04:52:39;;;;;;;1.00;0.70;;;9.30;99.90;;;;;;5098197;28;20223;-77
2021/01/22 04:55:07;;;;;;;1.20;0.90;;;9.20;99.90;;;;;;5097806;28;20193;-77
2021/01/22 04:57:39;;;;;;;3.55;1.15;;;9.20;99.90;;;;;;5110717;28;20200;-78
2021/01/22 05:00:08;;;;;;;1.10;1.00;;;9.20;99.90;;;;;;5095949;28;20193;-80
2021/01/22 05:02:35;;;;;;;1.42;1.00;;;9.20;99.90;;;;;;5091180;28;20232;-80
2021/01/22 05:05:01;;;;;;;1.45;1.35;;;9.20;99.90;;;;;;5090315;28;20201;-78
2021/01/22 05:07:29;;;;;;;1.23;1.13;;;9.20;99.90;;;;;;5097171;28;20247;-79
2021/01/22 05:09:56;;;;;;;1.40;1.20;;;9.20;99.90;;;;;;5090037;28;20290;-80
2021/01/22 05:12:22;;;;;;;1.50;1.40;;;9.20;99.90;;;;;;5107402;28;20201;-79
2021/01/22 05:14:48;;;;;;;2.42;2.03;;;9.20;99.90;;;;;;5092607;28;20207;-78
2021/01/22 05:17:16;;;;;;;4.68;2.30;;;9.20;99.90;;;;;;5089992;28;20625;-78
2021/01/22 05:19:43;;;;;;;2.00;1.80;;;9.20;99.90;;;;;;5090203;28;20196;-78
2021/01/22 05:22:13;;;;;;;1.60;1.50;;;9.20;99.90;;;;;;5090170;28;20230;-79
2021/01/22 05:24:40;;;;;;;2.15;2.03;;;9.10;99.90;;;;;;5107395;28;20201;-79
2021/01/22 05:27:08;;;;;;;2.65;2.42;;;9.20;99.90;;;;;;5089826;28;20223;-79
2021/01/22 05:29:36;;;;;;;2.60;2.40;;;9.10;99.90;;;;;;5090304;28;20217;-79
2021/01/22 05:32:22;;;;;;;3.15;2.30;;;9.10;99.90;;;;;;5089911;28;20212;-79
2021/01/22 05:34:50;;;;;;;2.55;2.15;;;9.00;99.90;;;;;;5105144;28;20193;-78
2021/01/22 05:37:16;;;;;;;2.17;1.98;;;9.10;99.90;;;;;;5107827;28;20545;-79
2021/01/22 05:39:42;;;;;;;3.25;2.60;;;9.00;99.90;;;;;;5110631;28;20246;-79
2021/01/22 05:42:10;;;;;;;2.53;1.95;;;9.00;99.90;;;;;;5094225;28;20806;-80
2021/01/22 05:44:36;;;;;;;2.67;2.47;;;9.00;99.90;;;;;;5106302;28;20254;-76
2021/01/22 05:47:08;;;;;;;3.60;3.03;;;9.00;99.90;;;;;;5106666;28;20197;-76
2021/01/22 05:49:52;;;;;;;3.70;2.72;;;9.00;99.90;;;;;;5090020;28;20229;-76
2021/01/22 05:52:21;;;;;;;3.20;2.88;;;9.00;99.90;;;;;;5090163;28;20182;-76
2021/01/22 05:54:48;;;;;;;3.80;3.10;;;9.00;99.90;;;;;;5103638;28;20201;-77
2021/01/22 05:57:14;;;;;;;3.10;2.80;;;9.00;99.90;;;;;;5092310;28;20197;-79
2021/01/22 05:59:41;;;;;;;3.15;2.85;;;9.00;99.90;;;;;;5110597;28;20667;-78
2021/01/22 06:02:25;;;;;;;3.53;2.80;;;9.00;99.90;;;;;;5093021;28;20231;-79
2021/01/22 06:05:07;;;;;;;3.25;2.95;;;9.00;99.90;;;;;;5109524;28;20213;-77
2021/01/22 06:07:34;;;;;;;3.55;3.28;;;9.00;99.90;;;;;;5114635;28;20188;-79
2021/01/22 06:10:18;;;;;;;3.13;2.85;;;9.00;99.90;;;;;;5100260;28;20213;-78
2021/01/22 06:12:49;;;;;;;3.55;3.25;;;8.90;99.90;;;;;;5095191;28;20753;-77
2021/01/22 06:15:17;;;;;;;3.78;3.00;;;8.90;99.90;;;;;;5098753;28;20205;-77
2021/01/22 06:17:47;;;;;;;3.40;3.10;;;8.90;99.90;;;;;;5094003;28;20201;-77
2021/01/22 06:20:16;;;;;;;2.92;2.72;;;8.90;99.90;;;;;;5093564;28;20251;-76
2021/01/22 06:22:56;;;;;;;3.40;2.70;;;8.90;99.90;;;;;;5106469;28;20197;-76
2021/01/22 06:25:23;;;;;;;2.95;2.75;;;8.90;99.90;;;;;;5114494;28;20177;-77
2021/01/22 06:27:51;;;;;;;3.38;3.08;;;8.90;99.90;;;;;;5113997;28;20644;-77
2021/01/22 06:30:18;;;;;;;3.65;2.95;;;8.90;99.90;;;;;;5102596;28;20750;-77
2021/01/22 06:32:46;;;;;;;3.08;2.72;;;8.90;99.90;;;;;;5107675;28;20203;-77
2021/01/22 06:35:14;;;;;;;3.55;3.25;;;8.90;99.90;;;;;;5093272;28;20691;-78
2021/01/22 06:37:42;;;;;;;3.30;3.00;;;8.90;99.90;;;;;;5093428;28;20207;-78
2021/01/22 06:40:11;;;;;;;3.75;3.13;;;8.90;99.90;;;;;;5093650;28;20190;-78
2021/01/22 06:42:40;;;;;;;4.15;3.25;;;8.90;99.90;;;;;;5106366;28;20197;-78
2021/01/22 06:45:07;;;;;;;3.92;2.88;;;8.80;99.90;;;;;;5113597;28;20599;-79
2021/01/22 06:47:34;;;;;;;3.03;2.72;;;8.80;99.90;;;;;;5113542;28;20911;-80
2021/01/22 06:50:00;;;;;;;2.63;2.25;;;8.80;99.90;;;;;;5110488;28;20239;-81
2021/01/22 06:52:27;;;;;;;4.82;3.67;;;8.80;99.90;;;;;;5104900;28;20197;-79
2021/01/22 06:55:06;;;;;;;3.28;3.08;;;8.80;99.90;;;;;;5113526;28;20200;-80
2021/01/22 06:57:34;;;;;;;4.03;3.50;;;8.80;99.90;;;;;;5097196;28;20207;-76
2021/01/22 07:00:01;;;;;;;3.78;2.95;;;8.80;99.90;;;;;;5112937;28;20188;-76
2021/01/22 07:02:41;;;;;;;3.40;3.08;;;8.80;99.90;;;;;;5101698;28;20212;-79
2021/01/22 07:05:34;;;;;;;2.83;2.60;;;8.70;99.90;;;;;;5109010;28;20197;-78
2021/01/22 07:08:01;;;;;;;2.85;2.65;;;8.70;99.90;;;;;;5045641;28;20223;-78
2021/01/22 07:10:58;;;;;;;4.40;2.70;;;8.70;99.90;;;;;;5101219;28;20676;-81
2021/01/22 07:13:36;;;;;;;3.28;2.97;;;8.70;99.90;;;;;;5096517;28;20246;-78
2021/01/22 07:16:11;;;;;;;3.20;2.90;;;8.70;99.90;;;;;;5092299;28;20207;-79
2021/01/22 07:18:44;;;;;;;2.83;2.63;;;8.80;99.90;;;;;;5092884;28;20193;-78
2021/01/22 07:21:29;;;;;;;2.92;2.60;;;8.70;99.90;;;;;;5104294;28;20193;-77
2021/01/22 07:23:57;;;;;;;4.40;3.63;;;8.70;99.90;;;;;;5113252;28;20196;-77
2021/01/22 07:26:33;;;;;;;3.30;3.00;;;8.70;99.90;;;;;;5104825;28;20189;-77
2021/01/22 07:29:13;;;;;;;3.05;2.75;;;8.70;99.90;;;;;;5092690;28;20192;-76
2021/01/22 07:32:05;;;;;;;3.00;2.47;;;8.70;99.90;;;;;;5101898;28;20193;-77
2021/01/22 07:34:53;;;;;;;3.35;3.05;;;8.60;99.90;;;;;;5073442;28;20186;-77
2021/01/22 07:37:21;;;;;;;2.70;2.50;;;8.60;99.90;;;;;;5085549;28;20202;-78
2021/01/22 07:39:48;;;;;;;3.97;3.55;;;8.60;99.90;;;;;;5092400;28;20649;-77
2021/01/22 07:42:16;;;;;;;5.40;2.80;;;8.60;99.90;;;;;;5104226;28;20200;-80
2021/01/22 07:44:45;;;;;;;3.20;2.90;;;8.60;99.90;;;;;;5105377;28;20241;-78
2021/01/22 07:47:22;;;;;;;3.17;2.88;;;8.60;99.90;;;;;;5092438;28;20181;-77
2021/01/22 07:49:55;;;;;;;4.00;3.60;;;8.60;99.90;;;;;;5106115;28;20223;-76
2021/01/22 07:52:21;;;;;;;3.88;3.20;;;8.60;99.90;;;;;;5107421;28;20288;-77
2021/01/22 07:54:48;;;;;;;4.43;2.95;;;8.60;99.90;;;;;;5112296;28;20207;-77
2021/01/22 07:57:16;;;;;;;3.30;3.00;;;8.60;99.90;;;;;;5111982;28;20197;-77
2021/01/22 07:59:44;;;;;;;3.35;3.05;;;8.50;99.90;;;;;;5102669;28;20185;-77
2021/01/22 08:02:12;;;;;;;3.25;2.95;;;8.50;99.90;;;;;;5102748;28;20200;-78
2021/01/22 08:04:38;;;;;;;6.18;3.22;;;8.50;99.90;;;;;;5112426;28;20204;-76
2021/01/22 08:07:04;;;;;;;4.78;3.55;;;8.50;99.90;;;;;;5111964;28;20257;-77
2021/01/22 08:09:30;;;;;;;3.33;3.03;;;8.50;99.90;;;;;;5097306;28;20213;-76
2021/01/22 08:12:08;;;;;;;3.15;2.92;;;8.50;99.90;;;;;;5100471;28;20189;-76
2021/01/22 08:14:35;;;;;;;3.30;3.00;;;8.50;99.90;;;;;;5102956;28;20201;-78
2021/01/22 08:17:04;;;;;;;3.45;3.15;;;8.50;99.90;;;;;;5112086;28;20197;-79
2021/01/22 08:19:32;;;;;;;3.50;3.20;;;8.50;99.90;;;;;;5111486;28;20196;-79
2021/01/22 08:21:59;;;;;;;3.83;3.53;;;8.50;99.90;;;;;;5103677;28;20196;-79
2021/01/22 08:24:26;;;;;;;3.58;3.28;;;8.50;99.90;;;;;;5108075;28;20184;-79
2021/01/22 08:27:00;;;;;;;4.57;3.15;;;8.60;99.90;;;;;;5108431;28;20197;-79
2021/01/22 08:29:28;;;;;;;4.55;3.65;;;8.50;99.90;;;;;;5105097;28;20211;-78
2021/01/22 08:31:56;;;;;;;3.42;3.00;;;8.50;99.90;;;;;;5092821;28;20201;-78
2021/01/22 08:34:24;;;;;;;3.58;3.28;;;8.50;99.90;;;;;;5091468;28;20201;-79
2021/01/22 08:36:52;;;;;;;3.58;2.83;;;8.50;99.90;;;;;;5091620;28;20193;-78
2021/01/22 08:39:19;;;;;;;3.38;2.63;;;8.60;99.90;;;;;;5109903;28;20201;-78
2021/01/22 08:41:45;;;;;;;3.42;3.13;;;8.50;99.90;;;;;;5111294;28;20212;-78
2021/01/22 08:44:11;;;;;;;3.20;2.90;;;8.50;99.90;;;;;;5105411;28;20199;-78
2021/01/22 08:46:48;;;;;;;3.97;2.58;;;8.50;99.90;;;;;;5095411;28;20259;-80
2021/01/22 08:49:16;;;;;;;3.58;3.20;;;8.50;99.90;;;;;;5111183;28;20272;-79
2021/01/22 08:51:44;;;;;;;4.50;2.53;;;8.50;99.90;;;;;;5111839;28;20208;-80
2021/01/22 08:54:10;;;;;;;4.60;3.67;;;8.50;99.90;;;;;;5096461;28;20243;-80
2021/01/22 08:56:36;;;;;;;3.10;2.80;;;8.50;99.90;;;;;;5093515;28;20201;-80
2021/01/22 08:59:05;;;;;;;4.55;3.13;;;8.50;99.90;;;;;;5101005;28;20222;-80
2021/01/22 09:01:52;;;;;;;2.75;2.25;;;8.50;99.90;;;;;;5090964;28;20193;-79
2021/01/22 09:04:27;;;;;;;3.08;2.38;;;8.50;99.90;;;;;;5104256;28;20843;-78
2021/01/22 09:06:56;;;;;;;3.83;3.45;;;8.50;99.90;;;;;;5111237;28;20192;-78
2021/01/22 09:09:44;;;;;;;2.10;1.90;;;8.50;99.90;;;;;;5103725;28;20215;-76
2021/01/22 09:12:15;;;;;;;3.38;2.50;;;8.50;99.90;;;;;;5095977;28;20312;-82
2021/01/22 09:14:48;;;;;;;4.65;3.15;;;8.50;99.90;;;;;;5090855;28;20649;-81
2021/01/22 09:17:42;;;;;;;2.95;2.40;;;8.50;99.90;;;;;;5096909;28;20208;-81
2021/01/22 09:20:14;;;;;;;3.83;3.08;;;8.50;99.90;;;;;;5111675;28;20251;-82
2021/01/22 09:22:43;;;;;;;3.08;2.38;;;8.50;99.90;;;;;;5100159;28;20196;-82
2021/01/22 09:25:11;;;;;;;3.53;2.75;;;8.50;99.90;;;;;;5108173;28;20228;-82
2021/01/22 09:27:38;;;;;;;2.85;2.55;;;8.60;99.90;;;;;;5110826;28;20203;-81
2021/01/22 09:30:07;;;;;;;3.50;2.90;;;8.60;99.90;;;;;;5104370;28;20668;-81
2021/01/22 09:32:34;;;;;;;4.95;3.30;;;8.60;99.90;;;;;;5104227;28;20563;-82
2021/01/22 09:35:00;;;;;;;3.95;3.38;;;8.60;99.90;;;;;;5109725;28;20205;-82
2021/01/22 09:37:26;;;;;;;5.72;3.40;;;8.70;99.90;;;;;;5096337;28;20196;-82
2021/01/22 09:39:53;;;;;;;4.85;3.70;;;8.70;99.90;;;;;;5110841;28;20195;-79
2021/01/22 09:42:20;;;;;;;4.40;3.40;;;8.70;99.90;;;;;;5114444;28;20219;-80
2021/01/22 09:44:46;;;;;;;4.00;3.05;;;8.70;99.90;;;;;;5113790;28;20234;-80
2021/01/22 09:47:12;;;;;;;3.22;2.95;;;8.70;99.90;;;;;;5114601;28;20197;-81
2021/01/22 09:49:39;;;;;;;3.35;2.60;;;8.70;99.90;;;;;;5097687;28;20710;-81
2021/01/22 09:52:05;;;;;;;4.30;3.90;;;8.70;99.90;;;;;;5094578;28;20194;-80
2021/01/22 09:54:31;;;;;;;3.65;2.95;;;8.70;99.90;;;;;;5111053;28;20189;-81
2021/01/22 09:56:59;;;;;;;2.97;2.63;;;8.80;99.90;;;;;;5114637;28;20193;-80
2021/01/22 09:59:25;;;;;;;3.03;2.72;;;8.80;99.90;;;;;;5099594;28;20208;-80
2021/01/22 10:01:51;;;;;;;3.47;3.05;;;8.80;99.90;;;;;;5114067;28;20193;-80
2021/01/22 10:04:18;;;;;;;5.28;3.40;;;8.80;99.90;;;;;;5107056;28;20293;-79
2021/01/22 10:06:44;;;;;;;7.30;3.05;;;8.80;99.90;;;;;;5114316;28;20382;-79
2021/01/22 10:09:10;;;;;;;4.88;3.92;;;8.80;99.90;;;;;;5098231;28;20205;-79
2021/01/22 10:11:38;;;;;;;5.35;3.50;;;8.80;99.90;;;;;;5103720;28;20218;-78
2021/01/22 10:14:05;;;;;;;3.88;3.50;;;8.80;99.90;;;;;;5094029;28;20197;-81
2021/01/22 10:16:31;;;;;;;4.57;4.10;;;8.80;99.90;;;;;;5100287;28;20246;-77
2021/01/22 10:18:58;;;;;;;3.55;3.25;;;8.80;99.90;;;;;;5110930;27;20280;-80
2021/01/22 10:21:24;;;;;;;3.17;2.88;;;8.80;99.90;;;;;;5109424;28;20198;-80
2021/01/22 10:23:52;;;;;;;6.53;3.45;;;8.80;99.90;;;;;;5114087;28;20219;-80
2021/01/22 10:26:20;;;;;;;5.45;4.00;;;8.80;99.90;;;;;;5113944;28;20273;-80
2021/01/22 10:28:46;;;;;;;4.20;3.80;;;8.80;99.90;;;;;;5113202;28;20192;-79
2021/01/22 10:31:14;;;;;;;4.70;3.85;;;8.80;99.90;;;;;;5114143;28;20212;-80
2021/01/22 10:33:40;;;;;;;4.55;3.75;;;8.80;99.90;;;;;;5104360;28;20259;-80
2021/01/22 10:36:07;;;;;;;3.70;3.28;;;8.80;99.90;;;;;;5106728;28;20185;-79
2021/01/22 10:38:34;;;;;;;5.60;3.72;;;8.70;99.90;;;;;;5113360;28;20208;-79
2021/01/22 10:41:01;;;;;;;6.43;3.50;;;8.70;99.90;;;;;;5113866;28;20200;-79
2021/01/22 10:43:28;;;;;;;5.50;3.50;;;8.80;99.90;;;;;;5105366;28;20201;-79
2021/01/22 10:45:55;;;;;;;3.30;2.80;;;8.80;99.90;;;;;;5093097;28;20243;-80
2021/01/22 10:48:22;;;;;;;8.45;3.42;;;8.80;99.90;;;;;;5102462;28;20189;-80
2021/01/22 10:50:50;;;;;;;4.65;3.25;;;8.80;99.90;;;;;;5113083;28;20607;-80
2021/01/22 10:53:17;;;;;;;4.18;3.78;;;8.80;99.90;;;;;;5100884;28;20197;-80
2021/01/22 10:55:43;;;;;;;4.90;3.20;;;8.80;99.90;;;;;;5102845;28;20198;-80
2021/01/22 10:58:09;;;;;;;5.53;3.72;;;8.80;99.90;;;;;;5107096;28;20216;-80
2021/01/22 11:00:36;;;;;;;11.05;4.00;;;8.80;99.90;;;;;;5113618;28;20205;-80
2021/01/22 11:03:02;;;;;;;5.20;3.80;;;8.90;99.90;;;;;;5112374;28;20197;-80
2021/01/22 11:05:30;;;;;;;3.42;2.90;;;8.80;99.90;;;;;;5112862;28;20611;-79
2021/01/22 11:07:56;;;;;;;5.18;3.72;;;8.80;99.90;;;;;;5104919;28;20193;-80
2021/01/22 11:10:24;;;;;;;4.90;3.90;;;8.80;99.90;;;;;;5112734;28;20217;-79
2021/01/22 11:12:50;;;;;;;4.47;3.00;;;8.80;99.90;;;;;;5111381;28;20228;-80
2021/01/22 11:15:17;;;;;;;4.13;3.70;;;8.90;99.90;;;;;;5110912;28;20203;-80
2021/01/22 11:17:43;;;;;;;4.25;3.53;;;8.80;99.90;;;;;;5109721;28;20189;-80
2021/01/22 11:20:10;;;;;;;3.92;3.38;;;8.90;99.90;;;;;;5102042;28;20181;-80
2021/01/22 11:22:37;;;;;;;3.60;3.05;;;8.90;99.90;;;;;;5112751;28;20228;-79
2021/01/22 11:25:04;;;;;;;4.80;3.15;;;8.90;99.90;;;;;;5113075;28;20234;-80
2021/01/22 11:27:31;;;;;;;6.95;3.28;;;8.90;99.90;;;;;;5109235;28;20658;-80
2021/01/22 11:29:58;;;;;;;4.82;3.28;;;8.80;99.90;;;;;;5111673;28;20575;-79
2021/01/22 11:32:24;;;;;;;4.43;2.83;;;8.90;99.90;;;;;;5110912;28;20215;-80
2021/01/22 11:34:51;;;;;;;4.40;3.08;;;8.90;99.90;;;;;;5111279;28;20509;-80
2021/01/22 11:37:17;;;;;;;3.53;3.22;;;8.90;99.90;;;;;;5097803;28;20198;-81
2021/01/22 11:39:44;;;;;;;4.57;2.92;;;8.90;99.90;;;;;;5097606;28;20193;-80
2021/01/22 11:42:11;;;;;;;3.50;2.67;;;8.90;99.90;;;;;;5104726;28;20560;-80
2021/01/22 11:44:38;;;;;;;5.40;4.05;;;8.90;99.90;;;;;;5098644;28;20204;-80
2021/01/22 11:47:04;;;;;;;3.78;2.70;;;8.90;99.90;;;;;;5111925;28;20197;-80
2021/01/22 11:49:31;;;;;;;8.90;3.72;;;8.90;99.90;;;;;;5110515;28;20192;-81
2021/01/22 11:51:57;;;;;;;4.85;3.90;;;8.90;99.90;;;;;;5111341;28;20215;-76
2021/01/22 11:54:24;;;;;;;3.60;2.95;;;8.90;99.90;;;;;;5112106;28;20206;-77
2021/01/22 11:56:51;;;;;;;3.08;2.78;;;8.90;99.90;;;;;;5108983;28;20212;-77
2021/01/22 11:59:17;;;;;;;4.15;3.13;;;8.90;99.90;;;;;;5104197;28;20193;-76
2021/01/22 12:01:44;;;;;;;5.88;3.78;;;9.00;99.90;;;;;;5100042;27;20211;-76
2021/01/22 12:04:10;;;;;;;4.15;3.33;;;9.00;99.90;;;;;;5090000;28;20229;-78
2021/01/22 12:06:37;;;;;;;5.13;2.90;;;9.00;99.90;;;;;;5084960;28;20204;-79
2021/01/22 12:09:04;;;;;;;6.03;3.28;;;8.90;99.90;;;;;;5103516;28;20192;-80
2021/01/22 12:11:30;;;;;;;3.60;3.30;;;8.90;99.90;;;;;;5111162;28;20224;-80
2021/01/22 12:13:57;;;;;;;6.47;3.00;;;8.90;99.90;;;;;;5109569;28;20281;-79
2021/01/22 12:16:24;;;;;;;6.47;3.50;;;8.90;99.90;;;;;;5110489;28;20629;-81
2021/01/22 12:18:50;;;;;;;5.13;3.50;;;9.00;99.90;;;;;;5109670;28;20288;-81
2021/01/22 12:21:16;;;;;;;4.03;3.00;;;9.00;99.90;;;;;;5111156;28;20199;-83
2021/01/22 12:23:43;;;;;;;4.25;2.97;;;9.00;99.90;;;;;;5105620;28;20278;-81
2021/01/22 12:26:09;;;;;;;3.63;2.70;;;9.00;99.90;;;;;;5109717;28;20219;-78
2021/01/22 12:28:36;;;;;;;3.42;2.83;;;9.20;99.90;;;;;;5103553;28;20208;-80
2021/01/22 12:31:05;;;;;;;5.20;2.72;;;9.00;99.90;;;;;;5110781;28;20301;-81
2021/01/22 12:33:31;;;;;;;5.05;3.03;;;9.00;99.90;;;;;;5104295;28;20197;-81
2021/01/22 12:35:57;;;;;;;3.40;3.10;;;9.00;99.90;;;;;;5110436;28;20197;-79
2021/01/22 12:38:24;;;;;;;3.10;2.80;;;9.00;99.90;;;;;;5110586;28;20304;-79
2021/01/22 12:40:51;;;;;;;2.63;2.38;;;9.00;99.90;;;;;;5107327;28;20206;-81
2021/01/22 12:43:17;;;;;;;3.83;3.53;;;9.00;99.90;;;;;;5109047;28;20199;-81
2021/01/22 12:45:44;;;;;;;5.97;4.30;;;9.00;99.90;;;;;;5110208;28;20719;-80
2021/01/22 12:48:12;;;;;;;4.22;2.80;;;9.00;99.90;;;;;;5108895;28;20215;-80
2021/01/22 12:50:38;;;;;;;3.55;3.25;;;9.00;99.90;;;;;;5102341;28;20208;-81
2021/01/22 12:53:05;;;;;;;7.50;3.90;;;9.00;99.90;;;;;;5112160;28;20232;-80
2021/01/22 12:55:31;;;;;;;4.82;3.55;;;9.00;99.90;;;;;;5114758;28;20221;-78
2021/01/22 12:57:57;;;;;;;3.08;2.22;;;9.00;99.90;;;;;;5109846;28;20193;-79
2021/01/22 13:00:24;;;;;;;3.65;3.35;;;9.00;99.90;;;;;;5110734;28;20189;-78